createdAt,value
2023-03-08T00:01:19.000Z,11.714562619104981
2023-03-08T00:04:16.384Z,11.733831238068888
2023-03-08T00:07:16.205Z,11.74475012396515
2023-03-08T00:11:16.335Z,11.675383106499885
2023-03-08T00:14:16.636Z,11.647764771716902
2023-03-08T00:17:17.047Z,11.625927024585327
2023-03-08T00:21:17.607Z,11.602804709822886
2023-03-08T00:24:16.923Z,11.559771528594956
2023-03-08T00:27:15.981Z,11.575186397136076
2023-03-08T00:31:15.999Z,11.586105263937498
2023-03-08T00:34:16.816Z,11.553990953567336
2023-03-08T00:37:16.438Z,11.486550938795062
2023-03-08T00:41:17.189Z,11.498112080623923
2023-03-08T00:44:16.972Z,11.443517812714344
2023-03-08T00:47:16.929Z,11.489120081296369
2023-03-08T00:51:17.449Z,11.4788435117277
2023-03-08T00:54:15.846Z,11.42874525175148
2023-03-08T00:57:16.602Z,11.417184118762908
2023-03-08T01:01:18.638Z,11.448656095352272
2023-03-08T01:04:16.558Z,11.448656095352272
2023-03-08T01:07:16.467Z,11.404980702206739
2023-03-08T01:11:19.428Z,11.381216158887492
2023-03-08T01:14:16.648Z,11.387639007819326
2023-03-08T01:17:16.613Z,11.366443608070039
2023-03-08T01:21:16.413Z,11.365159038547427
2023-03-08T01:24:16.327Z,11.290654037358763
2023-03-08T01:27:17.160Z,11.340752221073853
2023-03-08T01:31:17.605Z,11.328548814799523
2023-03-08T01:34:16.671Z,11.369655031956153
2023-03-08T01:37:15.999Z,11.40112699205638
2023-03-08T01:41:18.542Z,11.421037829595388
2023-03-08T01:44:19.061Z,11.476274369517432
2023-03-08T01:47:18.962Z,11.507746366606806
2023-03-08T01:51:21.615Z,11.561698387019351
2023-03-08T01:54:21.474Z,11.606658428540687
2023-03-08T01:57:19.369Z,11.673456245660782
2023-03-08T02:01:17.912Z,11.735758100190377
2023-03-08T02:04:16.713Z,11.778149077217767
2023-03-08T02:07:16.289Z,11.73961182455614
2023-03-08T02:11:17.952Z,11.803840588087132
2023-03-08T02:14:16.438Z,11.900183818648747
2023-03-08T02:17:16.630Z,11.98753510279721
2023-03-08T02:21:16.253Z,12.03634909233815
2023-03-08T02:24:19.683Z,12.061398386642395
2023-03-08T02:27:20.825Z,12.124985087863115
2023-03-08T02:31:15.996Z,12.17893747536591
2023-03-08T02:34:16.020Z,12.215548042302544
2023-03-08T02:37:16.031Z,12.231605313163982
2023-03-08T02:41:16.073Z,12.283630890277346
2023-03-08T02:44:16.519Z,12.241881968006874
2023-03-08T02:47:16.471Z,12.235459058593642
2023-03-08T02:51:15.989Z,12.297761299090052
2023-03-08T02:54:17.088Z,12.301615047330051
2023-03-08T02:57:16.567Z,12.321526082511355
2023-03-08T03:01:16.152Z,12.356209831650721
2023-03-08T03:04:16.403Z,12.374194003091635
2023-03-08T03:07:16.528Z,12.36391733326027
2023-03-08T03:11:17.987Z,12.408877772367214
2023-03-08T03:14:16.440Z,12.408235480223084
2023-03-08T03:17:16.233Z,12.428146538805686
2023-03-08T03:21:15.447Z,12.428146538805686
2023-03-08T03:24:15.869Z,12.449984479050272
2023-03-08T03:27:15.973Z,12.432642584896893
2023-03-08T03:31:18.938Z,12.46732637651876
2023-03-08T03:34:16.437Z,12.457691988626994
2023-03-08T03:37:16.594Z,12.500083303004157
2023-03-08T03:41:17.772Z,12.50650623115298
2023-03-08T03:44:16.649Z,12.51678291713697
2023-03-08T03:47:16.779Z,12.52577501832793
2023-03-08T03:51:18.736Z,12.557889672714463
2023-03-08T03:54:16.481Z,12.57844305748813
2023-03-08T03:57:16.734Z,12.587435164790895
2023-03-08T04:01:18.428Z,12.592573512221225
2023-03-08T04:04:17.464Z,12.592573512221225
2023-03-08T04:07:16.377Z,12.609915436947267
2023-03-08T04:11:18.773Z,12.622761309252018
2023-03-08T04:14:17.424Z,12.649737647012808
2023-03-08T04:17:16.714Z,12.645883883984425
2023-03-08T04:21:16.269Z,12.65808746746925
2023-03-08T04:24:16.661Z,12.669648758600761
2023-03-08T04:27:16.690Z,12.700478875487988
2023-03-08T04:31:18.580Z,12.690202168694759
2023-03-08T04:34:16.072Z,12.694698227773552
2023-03-08T04:37:16.086Z,12.73002441400322
2023-03-08T04:41:17.112Z,12.758927667513854
2023-03-08T04:44:16.457Z,12.746724070463916
2023-03-08T04:47:16.282Z,12.782050276952578
2023-03-08T04:51:16.612Z,12.765350613988995
2023-03-08T04:54:16.265Z,12.787830930233122
2023-03-08T04:57:16.289Z,12.778196508303518
2023-03-08T05:01:18.293Z,12.7846194561429
2023-03-08T05:04:16.125Z,12.789757814741824
2023-03-08T05:07:16.148Z,12.818661087283635
2023-03-08T05:11:18.927Z,12.81544961210202
2023-03-08T05:14:16.762Z,12.811595842034148
2023-03-08T05:17:16.942Z,12.863621751763366
2023-03-08T05:21:18.969Z,12.850133550079772
2023-03-08T05:24:16.734Z,12.848848959547832
2023-03-08T05:27:16.681Z,12.869402410241673
2023-03-08T05:31:18.540Z,12.902801777550849
2023-03-08T05:34:16.441Z,12.902801777550849
2023-03-08T05:37:16.456Z,12.880963728303323
2023-03-08T05:41:16.836Z,12.906655551493168
2023-03-08T05:44:17.020Z,12.943908708042363
2023-03-08T05:47:16.932Z,12.972812029696888
2023-03-08T05:51:17.874Z,12.9586815157375
2023-03-08T05:54:16.154Z,12.967673660729725
2023-03-08T05:57:16.281Z,12.98565795338809
2023-03-08T06:01:19.207Z,13.001715360560047
2023-03-08T06:04:16.607Z,12.989511730850154
2023-03-08T06:07:16.448Z,13.006211435077512
2023-03-08T06:11:16.622Z,13.035757073164223
2023-03-08T06:14:16.342Z,13.032545590297378
2023-03-08T06:17:16.243Z,13.044106929150075
2023-03-08T06:21:18.065Z,13.038968556144756
2023-03-08T06:24:16.724Z,13.04539152244688
2023-03-08T06:27:17.082Z,13.050529895815998
2023-03-08T06:31:17.848Z,13.014561288343975
2023-03-08T06:34:16.503Z,13.005569138704232
2023-03-08T06:37:16.570Z,13.008138324224637
2023-03-08T06:41:17.880Z,13.035114776581759
2023-03-08T06:44:16.520Z,13.078148657661313
2023-03-08T06:47:16.607Z,13.054383676033831
2023-03-08T06:51:16.974Z,13.07044109537028
2023-03-08T06:54:17.628Z,13.06466042408174
2023-03-08T06:57:16.117Z,13.067871908085454
2023-03-08T07:01:17.835Z,13.083929329809326
2023-03-08T07:04:18.243Z,13.082002439052394
2023-03-08T07:07:16.362Z,13.11861337043265
2023-03-08T07:11:16.315Z,13.149443639896708
2023-03-08T07:14:16.676Z,13.180916217448338
2023-03-08T07:17:16.635Z,13.211104210256963
2023-03-08T07:21:16.107Z,13.247072895654492
2023-03-08T07:24:16.514Z,13.234869232939037
2023-03-08T07:27:16.650Z,13.19890055238002
2023-03-08T07:31:16.085Z,13.264414945495172
2023-03-08T07:34:16.341Z,13.33442547670602
2023-03-08T07:37:16.423Z,13.33378317800898
2023-03-08T07:41:16.150Z,13.36332892277942
2023-03-08T07:44:16.404Z,13.391590078955142
2023-03-08T07:47:16.414Z,13.441689422903528
2023-03-08T07:51:15.923Z,13.448112417718312
2023-03-08T07:54:16.397Z,13.487934995719934
2023-03-08T07:57:15.952Z,13.484081197084834
2023-03-08T08:01:15.976Z,13.522619190802743
2023-03-08T08:04:16.534Z,13.451966214825461
2023-03-08T08:07:16.425Z,13.545099694698365
2023-03-08T08:11:17.923Z,13.575287808692611
2023-03-08T08:14:16.684Z,13.593914522338673
2023-03-08T08:17:17.829Z,13.590060719201574
2023-03-08T08:21:16.086Z,13.647225482531303
2023-03-08T08:24:16.311Z,13.665852210947559
2023-03-08T08:27:16.264Z,13.66970601730427
2023-03-08T08:31:19.119Z,13.729440036767574
2023-03-08T08:34:16.780Z,13.746782178817375
2023-03-08T08:37:16.873Z,13.776328058092986
2023-03-08T08:41:18.812Z,13.809727759295857
2023-03-08T08:44:16.668Z,13.859827334155852
2023-03-08T08:47:16.607Z,13.875242593525035
2023-03-08T08:51:16.352Z,13.889373250247809
2023-03-08T08:54:16.787Z,13.853404310191763
2023-03-08T08:57:16.697Z,13.904788514637403
2023-03-08T09:01:20.792Z,13.903503909171558
2023-03-08T09:04:19.846Z,13.928553719036518
2023-03-08T09:07:17.880Z,13.989572515600958
2023-03-08T09:11:15.926Z,13.974799540035837
2023-03-08T09:14:16.181Z,14.026826116838492
2023-03-08T09:17:16.096Z,14.048022138163741
2023-03-08T09:21:16.874Z,14.110967927653201
2023-03-08T09:24:17.127Z,14.111610231852683
2023-03-08T09:27:16.645Z,14.191898292599308
2023-03-08T09:31:17.951Z,14.211167437751374
2023-03-08T09:34:16.554Z,14.276040256513806
2023-03-08T09:37:16.587Z,14.286317142950429
2023-03-08T09:41:55.990Z,14.362109216372847
2023-03-08T09:44:30.419Z,14.4045014206451
2023-03-08T09:47:30.869Z,14.436616740099634
2023-03-08T09:51:19.701Z,14.549020447718885
2023-03-08T09:54:20.799Z,14.632520434961133
2023-03-08T09:57:21.827Z,14.706385872353348
2023-03-08T10:01:26.901Z,14.79245524048456
2023-03-08T10:04:34.901Z,14.856043855955159
2023-03-08T10:07:26.443Z,14.709597414473773
2023-03-08T10:11:23.091Z,14.874670832563424
2023-03-08T10:14:21.035Z,14.932478715354591
2023-03-08T10:17:20.707Z,14.994782808050605
2023-03-08T10:21:19.681Z,15.117464187814402
2023-03-08T10:24:22.015Z,15.08277938299725
2023-03-08T10:27:20.436Z,15.200964698243478
2023-03-08T10:31:21.148Z,15.310800102070152
2023-03-08T10:34:19.162Z,15.346769619946372
2023-03-08T10:37:19.240Z,15.397512356914012
2023-03-08T10:41:16.802Z,15.479728497309043
2023-03-08T10:44:31.239Z,15.509274940962495
2023-03-08T10:47:20.201Z,15.423847206273877
2023-03-08T10:51:18.687Z,15.626176181942355
2023-03-08T10:54:16.147Z,15.791893583863565
2023-03-08T10:57:18.895Z,15.88759873293684
2023-03-08T11:01:24.374Z,16.082220924668945
2023-03-08T11:04:18.436Z,16.188203481883193
2023-03-08T11:07:21.435Z,16.179211017676515
2023-03-08T11:11:16.315Z,16.30060935967049
2023-03-08T11:14:16.875Z,16.388607201184005
2023-03-08T11:17:21.386Z,16.488166905805702
2023-03-08T11:21:23.293Z,16.63718550654594
2023-03-08T11:24:31.075Z,16.646820338293857
2023-03-08T11:27:30.282Z,16.644893371862416
2023-03-08T11:31:27.599Z,16.851721335723777
2023-03-08T11:34:29.621Z,16.807401018060865
2023-03-08T11:37:25.224Z,16.907603506244868
2023-03-08T11:41:24.634Z,16.86585245605238
2023-03-08T11:44:31.387Z,16.915311394535184
2023-03-08T11:47:39.565Z,16.994959611879402
2023-03-08T11:51:25.339Z,16.948712251360213
2023-03-08T11:54:38.231Z,16.802262431906364
2023-03-08T11:57:17.777Z,16.91145745030817
2023-03-08T12:01:20.226Z,16.90118026650316
2023-03-08T12:04:20.959Z,16.784919705783615
2023-03-08T12:07:24.666Z,16.736745483947836
2023-03-08T12:11:20.463Z,16.57488028594462
2023-03-08T12:14:20.488Z,16.492020832052003
2023-03-08T12:17:20.779Z,16.51964064160793
2023-03-08T12:21:26.421Z,16.647462660446763
2023-03-08T12:24:31.738Z,16.66223607121874
2023-03-08T12:27:21.511Z,16.482386016743202
2023-03-08T12:31:28.377Z,16.732249224548287
2023-03-08T12:34:26.592Z,16.742526389217527
2023-03-08T12:37:21.052Z,16.69820612489648
2023-03-08T12:41:23.836Z,16.727752965371565
2023-03-08T12:44:24.607Z,16.66159374896124
2023-03-08T12:47:20.504Z,16.5928652936841
2023-03-08T12:51:24.171Z,16.74316871204801
2023-03-08T12:54:22.389Z,16.91145745030817
2023-03-08T12:57:26.614Z,16.85942921926653
2023-03-08T13:01:29.588Z,16.689213610140087
2023-03-08T13:04:39.183Z,16.819605161344224
2023-03-08T13:07:26.409Z,16.866494779755975
2023-03-08T13:11:17.601Z,16.89283005551879
2023-03-08T13:14:26.621Z,16.775284859370096
2023-03-08T13:17:52.600Z,16.766934659972684
2023-03-08T13:21:25.991Z,16.806116371494955
2023-03-08T13:24:25.244Z,16.85236365932733
2023-03-08T13:27:25.681Z,16.892187731628745
2023-03-08T13:31:18.844Z,16.931369497243214
2023-03-08T13:34:24.612Z,16.937792739122234
2023-03-08T13:37:21.076Z,16.93201182141065
2023-03-08T13:41:16.134Z,16.700133092460238
2023-03-08T13:44:18.568Z,16.780423443996643
2023-03-08T13:47:23.382Z,16.657097493286074
2023-03-08T13:51:16.916Z,16.732891547306007
2023-03-08T13:54:23.589Z,16.651316593459704
2023-03-08T13:57:21.697Z,16.63718550654594
2023-03-08T14:01:20.127Z,16.553041352768286
2023-03-08T14:04:20.158Z,16.629477641884296
2023-03-08T14:07:21.281Z,16.40338056980545
2023-03-08T14:11:20.601Z,16.599930833414327
2023-03-08T14:14:21.723Z,16.62176977787749
2023-03-08T14:17:20.300Z,16.556252960258643
2023-03-08T14:21:19.367Z,16.60314244256451
2023-03-08T14:24:20.686Z,16.63461621825263
2023-03-08T14:27:32.266Z,16.52863313955686
2023-03-08T14:31:24.958Z,16.563318497137608
2023-03-08T14:34:20.300Z,16.5928652936841
2023-03-08T14:37:22.066Z,16.60828101744128
2023-03-08T14:41:16.073Z,16.540194923943726
2023-03-08T14:44:19.905Z,16.630762285949096
2023-03-08T14:47:22.350Z,16.715548834443688
2023-03-08T14:51:39.040Z,16.774000213258933
2023-03-08T14:54:22.746Z,16.617273524175925
2023-03-08T14:57:18.749Z,16.70527167283035
2023-03-08T15:01:23.743Z,16.81832051460551
2023-03-08T15:04:19.001Z,16.957704791837113
2023-03-08T15:07:20.191Z,16.90439188631717
2023-03-08T15:11:16.436Z,16.78235041330663
2023-03-08T15:14:16.420Z,16.826670718732295
2023-03-08T15:17:16.343Z,16.624339065807
2023-03-08T15:21:21.717Z,16.61149262688705
2023-03-08T15:24:18.534Z,16.77913879781272
2023-03-08T15:27:17.038Z,16.849152041355048
2023-03-08T15:31:15.836Z,16.72518367451348
2023-03-08T15:34:16.155Z,16.88576449297843
2023-03-08T15:37:16.140Z,16.90824583024405
2023-03-08T15:41:16.607Z,16.846582747059074
2023-03-08T15:44:16.284Z,16.82988233590877
2023-03-08T15:47:16.728Z,16.833093953198933
2023-03-08T15:51:17.842Z,16.93650809071005
2023-03-08T15:54:16.988Z,16.869706398342167
2023-03-08T15:57:17.248Z,16.944215981456
2023-03-08T16:01:16.233Z,16.869706398342167
2023-03-08T16:04:16.499Z,16.881910550006523
2023-03-08T16:07:18.381Z,16.836947894097193
2023-03-08T16:11:17.957Z,16.83759021759615
2023-03-08T16:14:18.343Z,16.863925484968878
2023-03-08T16:17:17.444Z,16.692425222450765
2023-03-08T16:21:16.429Z,16.72325670641767
2023-03-08T16:24:16.841Z,16.533129388865564
2023-03-08T16:27:16.368Z,16.578091894208047
2023-03-08T16:31:20.417Z,16.341717829754636
2023-03-08T16:34:17.209Z,16.39117648251058
2023-03-08T16:37:17.680Z,16.399526647324457
2023-03-08T16:41:16.549Z,16.304463277949615
2023-03-08T16:44:23.147Z,16.170860873139826
2023-03-08T16:47:17.139Z,16.167006960535947
2023-03-08T16:51:18.323Z,16.0873594700417
2023-03-08T16:54:16.551Z,15.98201934807148
2023-03-08T16:57:19.447Z,15.985230935348318
2023-03-08T17:01:18.180Z,15.910722139802328
2023-03-08T17:04:16.923Z,15.873467764975885
2023-03-08T17:07:17.151Z,15.853555950221198
2023-03-08T17:11:17.691Z,15.843278886251209
2023-03-08T17:14:16.511Z,15.796389796660605
2023-03-08T17:17:16.438Z,15.715458000406306
2023-03-08T17:21:17.172Z,15.712246422679163
2023-03-08T17:24:18.246Z,15.671780553057852
2023-03-08T17:27:16.982Z,15.609475995437242
2023-03-08T17:31:20.749Z,15.561302397742201
2023-03-08T17:34:17.972Z,15.48229775289692
2023-03-08T17:37:17.184Z,15.437335790613725
2023-03-08T17:41:17.042Z,15.427058773791941
2023-03-08T17:44:17.211Z,15.36475438423231
2023-03-08T17:47:17.248Z,15.31979248020225
2023-03-08T17:51:18.691Z,15.187476149046507
2023-03-08T17:54:18.655Z,15.19582620307483
2023-03-08T17:57:18.915Z,15.164352926517404
2023-03-08T18:01:18.710Z,15.145083578911818
2023-03-08T18:04:16.609Z,15.089202493999982
2023-03-08T18:07:17.977Z,15.058371565334165
2023-03-08T18:11:16.596Z,14.99992129183238
2023-03-08T18:14:17.178Z,15.004417465380175
2023-03-08T18:17:17.434Z,14.922201755721835
2023-03-08T18:21:18.336Z,14.90742862828929
2023-03-08T18:24:17.067Z,14.841913048665537
2023-03-08T18:27:16.978Z,14.85925540337339
2023-03-08T18:31:18.567Z,14.83613226449961
2023-03-08T18:34:16.714Z,14.7763975163537
2023-03-08T18:37:16.772Z,14.733362829698308
2023-03-08T18:41:18.924Z,14.74107053327025
2023-03-08T18:44:17.180Z,14.705101255537011
2023-03-08T18:47:17.801Z,14.700605096823073
2023-03-08T18:51:16.663Z,14.676839690179623
2023-03-08T18:54:18.659Z,14.681335847715763
2023-03-08T18:57:16.801Z,14.646008901648747
2023-03-08T19:01:17.046Z,14.631878127073652
2023-03-08T19:04:17.616Z,14.575997358270342
2023-03-08T19:07:16.773Z,14.577281973258597
2023-03-08T19:11:18.261Z,14.570216591048302
2023-03-08T19:14:17.181Z,14.564435824194607
2023-03-08T19:17:16.460Z,14.496351264523492
2023-03-08T19:21:17.796Z,14.490570502376432
2023-03-08T19:24:18.796Z,14.450747484261228
2023-03-08T19:27:16.568Z,14.462309003848713
2023-03-08T19:31:16.636Z,14.479651285992531
2023-03-08T19:34:17.578Z,14.489285888615996
2023-03-08T19:37:16.425Z,14.50405894795922
2023-03-08T19:41:16.376Z,14.477724365590621
2023-03-08T19:44:16.975Z,14.474512831678386
2023-03-08T19:47:18.103Z,14.52397046653241
2023-03-08T19:51:18.468Z,14.456528243870798
2023-03-08T19:54:17.557Z,14.375597642856246
2023-03-08T19:57:16.909Z,14.327424700338451
2023-03-08T20:01:19.251Z,14.335132369422354
2023-03-08T20:04:17.380Z,14.270901813732053
2023-03-08T20:07:17.333Z,14.20988282794724
2023-03-08T20:11:15.945Z,14.223371231797865
2023-03-08T20:14:16.322Z,14.188044464060022
2023-03-08T20:17:17.081Z,14.142440838775656
2023-03-08T20:21:16.420Z,14.127025534004497
2023-03-08T20:24:19.125Z,14.078852723477121
2023-03-08T20:27:17.012Z,14.067291252756785
2023-03-08T20:31:19.441Z,14.067291252756785
2023-03-08T20:34:19.159Z,14.097479540514541
2023-03-08T20:37:17.787Z,14.016549259796738
2023-03-08T20:41:21.555Z,14.057656694948673
2023-03-08T20:44:17.245Z,14.03260684943607
2023-03-08T20:47:17.223Z,14.061510517949136
2023-03-08T20:51:18.389Z,14.07564120368479
2023-03-08T20:54:17.332Z,14.005630100465442
2023-03-08T20:57:16.793Z,13.986360998969122
2023-03-08T21:01:20.891Z,13.990857122285524
2023-03-08T21:04:18.416Z,13.974799540035837
2023-03-08T21:07:18.314Z,13.965164992050267
2023-03-08T21:11:17.688Z,13.97929566277926
2023-03-08T21:14:17.226Z,13.954245838903535
2023-03-08T21:17:22.646Z,13.951676626589414
2023-03-08T21:21:19.747Z,13.943326687071021
2023-03-08T21:24:18.275Z,13.960026566876332
2023-03-08T21:27:17.024Z,13.96837650793177
2023-03-08T21:31:18.446Z,13.981864875875544
2023-03-08T21:34:17.944Z,14.005630100465442
2023-03-08T21:37:16.658Z,14.009483921255832
2023-03-08T21:41:16.634Z,14.004987797016293
2023-03-08T21:44:17.873Z,13.997922459375786
2023-03-08T21:47:16.514Z,13.983149482450973
2023-03-08T21:51:16.417Z,14.089129587576554
2023-03-08T21:54:17.493Z,14.092983411913973
2023-03-08T21:57:16.593Z,14.110967927653201
2023-03-08T22:01:18.690Z,14.155286928085843
2023-03-08T22:04:17.210Z,14.121887099662853
2023-03-08T22:07:16.849Z,14.15014849214349
2023-03-08T22:11:17.363Z,14.156571537116907
2023-03-08T22:14:16.545Z,14.154644623577132
2023-03-08T22:17:16.559Z,14.186759854583306
2023-03-08T22:21:16.538Z,14.153360014573355
2023-03-08T22:24:16.957Z,14.204102084053739
2023-03-08T22:27:16.987Z,14.230436586996166
2023-03-08T22:31:18.906Z,14.221444316839278
2023-03-08T22:34:17.386Z,14.21309435249168
2023-03-08T22:37:17.460Z,14.219517401921621
2023-03-08T22:41:18.416Z,14.255486487133021
2023-03-08T22:44:16.448Z,14.242640383634717
2023-03-08T22:47:16.818Z,14.252917266287842
2023-03-08T22:51:19.273Z,14.268332592450315
2023-03-08T22:54:18.881Z,14.233648112268202
2023-03-08T22:57:17.712Z,14.264478760664133
2023-03-08T23:01:19.126Z,14.272828729741104
2023-03-08T23:04:17.554Z,14.259982623787163
2023-03-08T23:07:17.193Z,14.254201876701336
2023-03-08T23:21:20.137Z,14.328067006070432
2023-03-08T23:24:17.946Z,14.333205452089988
2023-03-08T23:27:17.447Z,14.357613074657365
2023-03-08T23:31:19.238Z,14.376882255006876
2023-03-08T23:34:17.135Z,14.358255380603078
2023-03-08T23:37:17.009Z,14.35247462725538
2023-03-08T23:41:17.338Z,14.363393828332482
2023-03-08T23:44:18.833Z,14.3569707687162
2023-03-08T23:47:16.726Z,14.331278534798548
2023-03-08T23:51:18.789Z,14.329351617548037
2023-03-08T23:54:17.460Z,14.355043850919992
2023-03-08T23:57:17.171Z,14.371101500472287
